Terminal Aerodrome Forecast
Issued by NWS Jackson, KY

Home | Current Version | Previous Version | Text Only | Print | Product List | Glossary Off
Versions: 1 2 3 4 5 6 7 8 9 10 11 12 13 14 15 16 17 18

000
FTUS43 KJKL 281700
TAFLOZ
TAF
KLOZ 281722Z 2818/2918 30006KT 6SM -RA BR BKN005 OVC012
     FM290300 VRB04KT 1/2SM -RA FG OVC002
     FM291100 VRB03KT 6SM BR OVC015=

USA.gov is the U.S. government's official web portal to all federal, state and local government web resources and services.